createdAt,value
2023-03-23T15:59:51.830Z,15.08
2023-03-23T16:02:23.685Z,15.00
2023-03-23T16:04:52.425Z,14.90
2023-03-23T16:07:24.006Z,14.78
2023-03-23T16:09:52.042Z,14.71
2023-03-23T16:12:20.505Z,14.62
2023-03-23T16:14:48.627Z,14.51
2023-03-23T16:17:20.146Z,14.40
2023-03-23T16:19:48.423Z,14.29
2023-03-23T16:22:17.374Z,14.21
2023-03-23T16:24:47.450Z,14.11
2023-03-23T16:27:16.268Z,14.02
2023-03-23T16:30:00.368Z,13.93
2023-03-23T16:32:32.003Z,13.80
2023-03-23T16:35:00.582Z,13.73
2023-03-23T16:37:33.528Z,13.64
2023-03-23T16:40:03.260Z,13.58
2023-03-23T16:42:31.394Z,13.50
2023-03-23T16:44:59.815Z,13.40
2023-03-23T16:47:28.148Z,13.31
2023-03-23T16:49:56.636Z,13.24
2023-03-23T16:52:25.065Z,13.14
2023-03-23T16:54:53.395Z,13.08
2023-03-23T16:57:22.402Z,13.03
2023-03-23T16:59:51.748Z,12.97
2023-03-23T17:02:19.880Z,12.87
2023-03-23T17:04:48.104Z,12.81
2023-03-23T17:07:16.633Z,12.76
2023-03-23T17:09:44.910Z,12.71
2023-03-23T17:12:13.089Z,12.65
2023-03-23T17:14:41.464Z,12.61
2023-03-23T17:17:12.437Z,12.57
2023-03-23T17:19:41.112Z,12.51
2023-03-23T17:22:09.478Z,12.42
2023-03-23T17:24:37.579Z,12.37
2023-03-23T17:27:06.128Z,12.34
2023-03-23T17:29:34.752Z,12.26
2023-03-23T17:32:03.100Z,12.23
2023-03-23T17:34:31.584Z,12.24
2023-03-23T17:36:59.583Z,12.20
2023-03-23T17:39:28.651Z,12.13
2023-03-23T17:41:57.060Z,12.08
2023-03-23T17:44:25.937Z,12.04
2023-03-23T17:46:56.705Z,11.97
2023-03-23T17:49:25.080Z,11.83
2023-03-23T17:51:53.631Z,11.76
2023-03-23T17:54:22.250Z,11.68
2023-03-23T17:56:50.811Z,11.58
2023-03-23T17:59:19.565Z,11.55
2023-03-23T18:01:50.784Z,11.50
2023-03-23T18:04:19.527Z,11.42
2023-03-23T18:06:47.845Z,11.34
2023-03-23T18:09:16.490Z,11.22
2023-03-23T18:11:44.969Z,11.09
2023-03-23T18:14:13.273Z,11.02
2023-03-23T18:16:41.708Z,11.02
2023-03-23T18:19:10.382Z,10.99
2023-03-23T18:21:39.315Z,10.92
2023-03-23T18:24:08.116Z,10.85
2023-03-23T18:26:36.509Z,10.74
2023-03-23T18:29:04.661Z,10.71
2023-03-23T18:31:33.248Z,10.69
2023-03-23T18:34:04.322Z,10.63
2023-03-23T18:36:33.386Z,10.62
2023-03-23T18:39:02.233Z,10.61
2023-03-23T18:41:32.604Z,10.49
2023-03-23T18:44:00.885Z,10.36
2023-03-23T18:46:30.051Z,10.24
2023-03-23T18:48:58.360Z,10.17
2023-03-23T18:51:26.574Z,10.06
2023-03-23T18:53:55.035Z,9.99
2023-03-23T18:56:23.617Z,9.97
2023-03-23T18:58:53.651Z,9.89
2023-03-23T19:01:22.141Z,9.86
2023-03-23T19:03:50.439Z,9.80
2023-03-23T19:06:22.773Z,9.80
2023-03-23T19:08:52.369Z,9.83
2023-03-23T19:11:24.503Z,9.80
2023-03-23T19:14:01.503Z,9.73
2023-03-23T19:16:32.868Z,9.70
2023-03-23T19:19:03.109Z,9.68
2023-03-23T19:21:32.395Z,9.60
2023-03-23T19:24:02.431Z,9.62
2023-03-23T19:26:39.609Z,9.64
2023-03-23T19:31:45.761Z,9.68
2023-03-23T19:34:16.876Z,9.68
2023-03-23T19:36:53.810Z,9.66
2023-03-23T19:39:24.065Z,9.63
2023-03-23T19:41:52.402Z,9.68
2023-03-23T19:44:21.344Z,9.69
2023-03-23T19:46:49.791Z,9.72
2023-03-23T19:49:18.081Z,9.68
2023-03-23T19:51:46.210Z,9.59
2023-03-23T19:54:14.376Z,9.56
2023-03-23T19:56:43.635Z,9.53
2023-03-23T19:59:16.330Z,9.49
2023-03-23T20:01:45.473Z,9.50
2023-03-23T20:04:13.885Z,9.48
2023-03-23T20:06:42.286Z,9.45
2023-03-23T20:09:10.852Z,9.39
2023-03-23T20:11:39.991Z,9.35
2023-03-23T20:14:08.540Z,9.30
2023-03-23T20:16:37.121Z,9.25
2023-03-23T20:19:05.926Z,9.17
2023-03-23T20:21:34.402Z,9.13
2023-03-23T20:24:03.022Z,9.09
2023-03-23T20:26:36.111Z,9.08
2023-03-23T20:29:06.973Z,9.02
2023-03-23T20:31:39.366Z,8.99
2023-03-23T20:34:11.397Z,8.98
2023-03-23T20:36:42.421Z,8.92
2023-03-23T20:39:21.670Z,8.87
2023-03-23T20:41:54.526Z,8.82
2023-03-23T20:44:25.485Z,8.79
2023-03-23T20:46:54.249Z,8.76
2023-03-23T20:49:24.115Z,8.74
2023-03-23T20:51:52.361Z,8.64
2023-03-23T20:54:22.058Z,8.57
2023-03-23T20:56:51.014Z,8.57
2023-03-23T20:59:20.371Z,8.52
2023-03-23T21:01:50.591Z,8.49
2023-03-23T21:04:23.187Z,8.54
2023-03-23T21:06:52.786Z,8.53
2023-03-23T21:09:20.947Z,8.48
2023-03-23T21:11:49.642Z,8.47
2023-03-23T21:14:18.104Z,8.48
2023-03-23T21:16:46.607Z,8.48
2023-03-23T21:19:15.075Z,8.45
2023-03-23T21:21:56.457Z,8.45
2023-03-23T21:24:30.662Z,8.45
2023-03-23T21:27:01.195Z,8.44
2023-03-23T21:29:29.418Z,8.43
2023-03-23T21:34:29.963Z,8.40
2023-03-23T21:36:58.123Z,8.39
2023-03-23T21:39:28.440Z,8.38
2023-03-23T21:41:56.574Z,8.38
2023-03-23T21:44:24.983Z,8.34
2023-03-23T21:46:54.714Z,8.27
2023-03-23T21:49:23.091Z,8.19
2023-03-23T21:51:51.558Z,8.15
2023-03-23T21:54:21.189Z,8.11
2023-03-23T21:56:49.478Z,8.06
2023-03-23T21:59:17.872Z,7.98
2023-03-23T22:01:46.050Z,7.92
2023-03-23T22:04:14.396Z,7.88
2023-03-23T22:06:43.336Z,7.86
2023-03-23T22:09:11.976Z,7.85
2023-03-23T22:11:41.687Z,7.86
2023-03-23T22:14:10.003Z,7.85
2023-03-23T22:16:38.473Z,7.83
2023-03-23T22:19:06.956Z,7.82
2023-03-23T22:21:36.904Z,7.81
2023-03-23T22:24:06.094Z,7.77
2023-03-23T22:26:34.314Z,7.72
2023-03-23T22:29:04.029Z,7.63
2023-03-23T22:31:34.954Z,7.55
2023-03-23T22:34:03.571Z,7.49
2023-03-23T22:36:33.336Z,7.48
2023-03-23T22:39:02.549Z,7.48
2023-03-23T22:41:37.018Z,7.47
2023-03-23T22:44:06.503Z,7.45
2023-03-23T22:46:35.857Z,7.43
2023-03-23T22:49:04.302Z,7.41
2023-03-23T22:51:32.875Z,7.43
2023-03-23T22:54:01.018Z,7.45
2023-03-23T22:56:29.655Z,7.48
2023-03-23T22:59:00.223Z,7.48
2023-03-23T23:01:28.804Z,7.48
2023-03-23T23:03:57.231Z,7.49
2023-03-23T23:06:25.850Z,7.45
2023-03-23T23:08:54.286Z,7.37
2023-03-23T23:11:24.401Z,7.34
2023-03-23T23:13:53.830Z,7.32
2023-03-23T23:16:22.846Z,7.31
2023-03-23T23:18:52.664Z,7.30
2023-03-23T23:21:23.786Z,7.29
2023-03-23T23:23:52.372Z,7.27
2023-03-23T23:26:21.431Z,7.25
2023-03-23T23:28:50.158Z,7.23
2023-03-23T23:31:29.364Z,7.21
2023-03-23T23:33:59.794Z,7.15
2023-03-23T23:36:30.450Z,7.10
2023-03-23T23:39:00.780Z,7.10
2023-03-23T23:41:30.965Z,7.11
2023-03-23T23:44:00.419Z,7.15
2023-03-23T23:46:33.008Z,7.18
2023-03-23T23:49:01.623Z,7.20
2023-03-23T23:51:30.464Z,7.19
2023-03-23T23:53:59.269Z,7.17
2023-03-23T23:56:28.891Z,7.07
2023-03-23T23:58:57.847Z,6.97
